Time;durP1;ratioP1;P1;durP2;ratioP2;P2;SDS_P1;SDS_P2;PMS_P1;PMS_P2;Temp;Humidity;BMP_temperature;BMP_pressure;BME280_temperature;BME280_humidity;BME280_pressure;Samples;Min_cycle;Max_cycle;Signal;HPM_P1;HPM_P2
2022/08/06 00:00:19;;;;;;;27.37;17.70;;;;;;;23.08;63.11;100274.45;124165;1099;102883;-74
2022/08/06 00:03:06;;;;;;;25.57;17.17;;;;;;;23.09;62.88;100277.13;125620;1099;102832;-75
2022/08/06 00:05:35;;;;;;;25.23;17.37;;;;;;;23.08;63.35;100277.13;124222;1099;104238;-74
2022/08/06 00:08:04;;;;;;;27.07;18.30;;;;;;;23.07;63.23;100281.58;124206;1099;102787;-75
2022/08/06 00:10:33;;;;;;;25.93;17.83;;;;;;;23.04;63.00;100273.61;124177;1099;104214;-74
2022/08/06 00:13:03;;;;;;;26.87;18.17;;;;;;;23.00;63.77;100268.34;124214;1099;102203;-74
2022/08/06 00:15:32;;;;;;;29.43;18.70;;;;;;;22.98;63.17;100269.28;124194;1099;104220;-74
2022/08/06 00:18:01;;;;;;;26.23;16.77;;;;;;;22.97;63.71;100269.30;124146;1102;104249;-74
2022/08/06 00:20:31;;;;;;;24.83;16.67;;;;;;;22.96;63.42;100265.73;124197;1099;104329;-74
2022/08/06 00:23:00;;;;;;;24.83;16.13;;;;;;;22.95;63.46;100266.66;124203;1099;104250;-74
2022/08/06 00:25:30;;;;;;;24.70;16.57;;;;;;;22.94;63.64;100264.88;124165;1102;104392;-74
2022/08/06 00:27:59;;;;;;;24.40;16.57;;;;;;;22.94;63.81;100274.72;124221;1102;102168;-74
2022/08/06 00:30:28;;;;;;;24.03;15.80;;;;;;;22.92;63.60;100269.39;124201;1099;104236;-74
2022/08/06 00:32:57;;;;;;;23.43;16.10;;;;;;;22.88;63.70;100259.65;124191;1099;104246;-74
2022/08/06 00:35:26;;;;;;;24.83;16.77;;;;;;;22.87;64.03;100257.87;124160;1099;102102;-75
2022/08/06 00:37:55;;;;;;;24.00;15.80;;;;;;;22.87;63.87;100270.38;124186;1098;104380;-75
2022/08/06 00:40:24;;;;;;;24.40;15.50;;;;;;;22.83;63.82;100257.95;124210;1099;102398;-74
2022/08/06 00:42:55;;;;;;;25.00;16.87;;;;;;;22.80;64.22;100262.47;124181;1099;104207;-74
2022/08/06 00:45:24;;;;;;;23.57;15.80;;;;;;;22.80;64.01;100266.95;124198;1099;103776;-74
2022/08/06 00:47:53;;;;;;;23.93;16.30;;;;;;;22.81;64.68;100266.02;124193;1099;104166;-74
2022/08/06 00:50:22;;;;;;;23.30;15.57;;;;;;;22.82;64.57;100258.89;124160;1099;103031;-74
2022/08/06 00:52:51;;;;;;;27.10;16.20;;;;;;;22.80;64.30;100264.27;124219;1099;104592;-74
2022/08/06 00:55:20;;;;;;;25.33;16.50;;;;;;;22.76;64.21;100259.88;124129;1099;102826;-74
2022/08/06 00:57:49;;;;;;;25.33;16.87;;;;;;;22.75;64.13;100261.68;124393;1099;102849;-74
2022/08/06 01:00:18;;;;;;;27.97;16.87;;;;;;;22.75;64.47;100258.09;124208;1099;104208;-75
2022/08/06 01:02:47;;;;;;;25.10;17.20;;;;;;;22.75;64.66;100263.45;124147;1099;104621;-75
2022/08/06 01:05:16;;;;;;;25.40;16.90;;;;;;;22.74;64.51;100267.05;124250;1099;104163;-74
2022/08/06 01:07:44;;;;;;;25.07;16.10;;;;;;;22.71;65.08;100267.98;124182;1099;104239;-74
2022/08/06 01:10:13;;;;;;;26.57;17.53;;;;;;;22.66;65.04;100267.19;124381;1099;104229;-74
2022/08/06 01:12:42;;;;;;;27.33;17.30;;;;;;;22.64;65.25;100268.12;124575;1099;104226;-74
2022/08/06 01:15:12;;;;;;;27.23;17.40;;;;;;;22.60;65.28;100270.84;124590;1099;104163;-75
2022/08/06 01:17:59;;;;;;;26.50;18.10;;;;;;;22.58;65.12;100277.15;124654;1099;104054;-74
2022/08/06 01:20:47;;;;;;;26.23;17.77;;;;;;;22.56;65.23;100278.95;124425;1099;103439;-74
2022/08/06 01:23:41;;;;;;;27.90;19.03;;;;;;;22.52;65.53;100282.60;124175;1099;104296;-75
2022/08/06 01:26:32;;;;;;;27.80;18.07;;;;;;;22.50;65.40;100284.40;124215;1099;104493;-74
2022/08/06 01:29:05;;;;;;;26.60;18.27;;;;;;;22.44;65.25;100278.25;124167;1099;104326;-74
2022/08/06 01:31:41;;;;;;;28.67;18.20;;;;;;;22.41;65.61;100282.78;124573;1099;104214;-74
2022/08/06 01:34:16;;;;;;;27.40;17.80;;;;;;;22.37;65.16;100278.38;124679;1099;102200;-74
2022/08/06 01:36:49;;;;;;;26.13;18.23;;;;;;;22.33;65.84;100279.33;124701;1099;103011;-74
2022/08/06 01:39:18;;;;;;;;;;;;;;;22.26;65.16;100271.37;124674;1099;104233;-74
2022/08/06 01:41:51;;;;;;;26.33;17.33;;;;;;;22.26;65.71;100275.84;124181;1099;104399;-75
2022/08/06 01:44:23;;;;;;;27.22;17.57;;;;;;;22.21;65.88;100278.59;124203;1099;104596;-74
2022/08/06 01:46:55;;;;;;;26.80;17.27;;;;;;;22.14;66.12;100284.05;124175;1099;104372;-74
2022/08/06 01:49:27;;;;;;;25.87;17.57;;;;;;;22.05;65.68;100288.64;124203;1099;104197;-74
2022/08/06 01:52:00;;;;;;;26.83;17.50;;;;;;;21.97;65.89;100295.89;124547;1099;104238;-74
2022/08/06 01:54:31;;;;;;;26.10;17.37;;;;;;;21.93;66.57;100298.63;124646;1099;104179;-74
2022/08/06 01:57:01;;;;;;;25.87;17.37;;;;;;;21.88;66.68;100299.56;124711;1098;104166;-74
2022/08/06 01:59:33;;;;;;;24.93;17.23;;;;;;;21.85;66.22;100307.63;124625;1099;104235;-74
2022/08/06 02:02:06;;;;;;;25.60;17.07;;;;;;;21.84;66.44;100310.31;124219;1102;103264;-75
2022/08/06 02:04:37;;;;;;;28.90;18.77;;;;;;;21.80;67.01;100309.48;124212;1099;104217;-74
2022/08/06 02:07:10;;;;;;;26.70;17.53;;;;;;;21.76;66.47;100310.41;124132;1099;104166;-74
2022/08/06 02:09:42;;;;;;;29.27;18.37;;;;;;;21.68;66.59;100314.98;124198;1099;104280;-74
2022/08/06 02:12:14;;;;;;;28.43;17.90;;;;;;;21.62;66.58;100310.59;124535;1098;104162;-75
2022/08/06 02:14:46;;;;;;;27.40;18.00;;;;;;;21.58;66.90;100315.98;124728;1099;101953;-75
2022/08/06 02:17:18;;;;;;;26.87;18.10;;;;;;;21.50;67.79;100306.31;124630;1099;104169;-74
2022/08/06 02:19:51;;;;;;;29.17;18.53;;;;;;;21.48;67.29;100305.39;124623;1098;102297;-74
2022/08/06 02:22:21;;;;;;;29.10;18.93;;;;;;;21.44;67.51;100306.35;124324;1099;104605;-74
2022/08/06 02:24:50;;;;;;;27.10;18.40;;;;;;;21.43;67.15;100309.91;124184;1099;104242;-74
2022/08/06 02:27:20;;;;;;;28.27;18.77;;;;;;;21.43;67.26;100301.03;124200;1102;104239;-74
2022/08/06 02:29:51;;;;;;;28.20;19.00;;;;;;;21.40;67.64;100309.95;124161;1099;104372;-74
2022/08/06 02:32:20;;;;;;;27.27;18.30;;;;;;;21.37;67.93;100305.52;124558;1099;104779;-74
2022/08/06 02:34:50;;;;;;;28.67;18.97;;;;;;;21.34;68.71;100305.55;124513;1099;104220;-76
2022/08/06 02:37:23;;;;;;;27.17;18.47;;;;;;;21.33;68.60;100310.91;124727;1098;104223;-75
2022/08/06 02:39:57;;;;;;;29.27;19.12;;;;;;;21.26;68.11;100307.44;124674;1099;104163;-75
2022/08/06 02:42:31;;;;;;;28.30;19.00;;;;;;;21.24;68.23;100300.34;124399;1099;104169;-75
2022/08/06 02:45:06;;;;;;;26.57;17.87;;;;;;;21.22;68.93;100302.16;124091;1099;104251;-75
2022/08/06 02:47:42;;;;;;;28.23;18.57;;;;;;;21.23;68.60;100296.80;124209;1099;102110;-75
2022/08/06 02:50:17;;;;;;;27.17;17.67;;;;;;;21.27;69.02;100301.20;124210;1099;104188;-75
2022/08/06 02:52:56;;;;;;;26.77;17.33;;;;;;;21.31;68.49;100302.05;124229;1099;104217;-74
2022/08/06 02:55:29;;;;;;;29.17;18.10;;;;;;;21.35;68.45;100302.00;124225;1099;104379;-74
2022/08/06 02:58:04;;;;;;;27.73;18.33;;;;;;;21.40;68.92;100304.61;124257;1099;104377;-74
2022/08/06 03:00:36;;;;;;;28.20;18.37;;;;;;;21.40;68.97;100298.40;124163;1099;104245;-75
2022/08/06 03:03:10;;;;;;;27.67;18.40;;;;;;;21.38;68.77;100301.09;124283;1099;103133;-75
2022/08/06 03:05:44;;;;;;;26.93;18.03;;;;;;;21.34;68.73;100296.67;124250;1099;104242;-75
2022/08/06 03:08:18;;;;;;;28.47;18.82;;;;;;;21.33;69.32;100306.48;124201;1099;104236;-75
2022/08/06 03:10:47;;;;;;;27.10;17.87;;;;;;;21.36;69.07;100303.77;124165;1102;104176;-76
2022/08/06 03:13:18;;;;;;;27.30;18.00;;;;;;;21.40;69.09;100301.06;124217;1100;104242;-75
2022/08/06 03:15:47;;;;;;;28.63;17.53;;;;;;;21.43;69.63;100309.04;124214;1099;104198;-75
2022/08/06 03:18:18;;;;;;;27.43;18.00;;;;;;;21.45;69.24;100301.89;124194;1099;104242;-75
2022/08/06 03:20:48;;;;;;;55.33;20.03;;;;;;;21.43;69.70;100309.91;124230;1099;104300;-75
2022/08/06 03:23:17;;;;;;;36.70;18.47;;;;;;;21.40;69.55;100309.08;124173;1099;104194;-75
2022/08/06 03:25:46;;;;;;;31.37;18.50;;;;;;;21.33;68.89;100310.91;124201;1099;102819;-76
2022/08/06 03:28:16;;;;;;;28.30;17.70;;;;;;;21.31;69.89;100310.05;124104;1099;104262;-76
2022/08/06 03:30:45;;;;;;;25.77;17.23;;;;;;;21.28;70.06;100312.75;124178;1099;104185;-75
2022/08/06 03:33:16;;;;;;;26.20;17.13;;;;;;;21.24;70.08;100303.91;124200;1099;104309;-75
2022/08/06 03:35:48;;;;;;;28.30;17.03;;;;;;;21.24;70.18;100311.02;124155;1099;102816;-76
2022/08/06 03:38:17;;;;;;;27.20;17.37;;;;;;;21.26;69.64;100311.90;124215;1098;104242;-75
2022/08/06 03:40:48;;;;;;;27.00;17.70;;;;;;;21.24;69.70;100321.69;124153;1099;104625;-76
2022/08/06 03:43:17;;;;;;;27.10;16.97;;;;;;;21.23;69.33;100320.81;124210;1099;104256;-75
2022/08/06 03:45:50;;;;;;;29.33;18.13;;;;;;;21.23;70.20;100323.48;124219;1099;104198;-75
2022/08/06 03:48:24;;;;;;;26.33;18.17;;;;;;;21.24;69.70;100319.92;124168;1099;104307;-75
2022/08/06 03:50:55;;;;;;;26.73;17.50;;;;;;;21.26;69.61;100330.58;124184;1099;103603;-75
2022/08/06 03:53:27;;;;;;;27.13;16.83;;;;;;;21.29;70.39;100317.20;124370;1099;104175;-75
2022/08/06 03:55:59;;;;;;;25.93;17.27;;;;;;;21.32;70.03;100311.83;124647;1099;104234;-75
2022/08/06 03:58:28;;;;;;;26.60;16.50;;;;;;;21.35;70.69;100319.80;124690;1099;104313;-74
2022/08/06 04:01:01;;;;;;;27.40;17.27;;;;;;;21.38;70.86;100322.44;124678;1099;104332;-75
2022/08/06 04:03:31;;;;;;;27.93;18.00;;;;;;;21.37;70.80;100320.66;124520;1099;102908;-75
2022/08/06 04:06:01;;;;;;;26.27;17.73;;;;;;;21.35;71.09;100325.14;124171;1099;102770;-75
2022/08/06 04:08:31;;;;;;;26.23;17.70;;;;;;;21.31;70.72;100326.94;124219;1099;102293;-75
2022/08/06 04:11:00;;;;;;;28.93;18.00;;;;;;;21.31;70.65;100326.06;124170;1099;104239;-75
2022/08/06 04:13:29;;;;;;;28.57;18.60;;;;;;;21.30;70.34;100326.95;124276;1098;104212;-75
2022/08/06 04:15:58;;;;;;;30.13;17.90;;;;;;;21.32;70.65;100330.52;124200;1099;104239;-74
2022/08/06 04:18:30;;;;;;;27.10;17.53;;;;;;;21.34;71.02;100326.03;124224;1099;104045;-75
2022/08/06 04:21:01;;;;;;;29.50;17.93;;;;;;;21.39;70.94;100328.65;124203;1099;102293;-75
2022/08/06 04:23:30;;;;;;;26.80;17.73;;;;;;;21.42;70.51;100316.14;124171;1099;104239;-75
2022/08/06 04:26:04;;;;;;;28.07;17.37;;;;;;;21.49;71.18;100333.89;124185;1102;104217;-75
2022/08/06 04:28:36;;;;;;;27.17;18.20;;;;;;;21.51;71.08;100326.74;124194;1099;104200;-75
2022/08/06 04:31:10;;;;;;;27.07;18.20;;;;;;;21.56;71.62;100336.49;124158;1102;104313;-75
2022/08/06 04:33:41;;;;;;;27.57;17.20;;;;;;;21.59;70.56;100333.78;124187;1102;102746;-75
2022/08/06 04:36:10;;;;;;;27.23;16.50;;;;;;;21.60;71.01;100332.86;124178;1099;104293;-75
2022/08/06 04:38:40;;;;;;;27.27;17.50;;;;;;;21.64;71.79;100326.59;124151;1098;104074;-75
2022/08/06 04:41:09;;;;;;;25.40;16.90;;;;;;;21.66;70.88;100327.45;124176;1099;104118;-75
2022/08/06 04:43:38;;;;;;;25.97;16.30;;;;;;;21.68;71.25;100325.66;124173;1099;104271;-75
2022/08/06 04:46:08;;;;;;;27.00;16.47;;;;;;;21.72;71.48;100327.37;124117;1099;104173;-75
2022/08/06 04:48:38;;;;;;;25.93;16.53;;;;;;;21.76;71.40;100322.89;124149;1099;102723;-76
2022/08/06 04:51:07;;;;;;;26.33;17.00;;;;;;;21.80;71.32;100333.52;124083;1099;102809;-75
2022/08/06 04:53:40;;;;;;;24.80;15.83;;;;;;;21.81;71.46;100329.92;124160;1099;104156;-75
2022/08/06 04:56:10;;;;;;;26.42;16.73;;;;;;;21.82;71.61;100326.36;124279;1099;110886;-75
2022/08/06 04:58:38;;;;;;;26.27;16.90;;;;;;;21.85;71.78;100333.45;124700;1099;103242;-75
2022/08/06 05:01:07;;;;;;;26.53;16.37;;;;;;;21.84;71.94;100327.20;124627;1098;104235;-75
2022/08/06 05:03:36;;;;;;;28.47;17.90;;;;;;;21.87;71.02;100332.51;124637;1099;104166;-76
2022/08/06 05:06:09;;;;;;;27.50;17.83;;;;;;;21.92;71.35;100331.58;124197;1100;102899;-75
2022/08/06 05:08:42;;;;;;;27.93;17.67;;;;;;;21.95;71.30;100326.19;124145;1099;102201;-75
2022/08/06 05:11:16;;;;;;;26.30;16.87;;;;;;;21.98;72.09;100324.34;124190;1099;104233;-75
2022/08/06 05:13:46;;;;;;;26.13;16.20;;;;;;;21.99;71.30;100323.45;124176;1099;102168;-75
2022/08/06 05:16:19;;;;;;;28.97;16.60;;;;;;;22.03;71.19;100326.95;124609;1098;104227;-75
2022/08/06 05:18:53;;;;;;;25.53;16.33;;;;;;;22.07;71.10;100326.02;124695;1099;104171;-75
2022/08/06 05:21:28;;;;;;;25.33;16.60;;;;;;;22.13;71.05;100325.94;124324;1099;104217;-75
2022/08/06 05:23:58;;;;;;;27.47;17.03;;;;;;;22.18;71.10;100324.06;124218;1099;104233;-75
2022/08/06 05:26:27;;;;;;;26.93;16.37;;;;;;;22.25;71.37;100314.16;124197;1099;104390;-75
2022/08/06 05:28:56;;;;;;;26.30;16.40;;;;;;;22.31;71.24;100311.42;124168;1099;104169;-75
2022/08/06 05:31:34;;;;;;;25.60;16.50;;;;;;;22.38;71.97;100306.88;124194;1102;104249;-75
2022/08/06 05:34:03;;;;;;;30.37;16.67;;;;;;;22.45;72.16;100311.20;124198;1099;104210;-75
2022/08/06 05:36:32;;;;;;;28.50;16.37;;;;;;;22.52;71.85;100320.91;124196;1099;104182;-75
2022/08/06 05:39:01;;;;;;;27.77;16.77;;;;;;;22.58;71.18;100309.23;124166;1099;104201;-75
2022/08/06 05:41:30;;;;;;;25.03;16.80;;;;;;;22.68;71.79;100315.30;124107;1099;102918;-75
2022/08/06 05:43:59;;;;;;;26.73;16.40;;;;;;;22.74;71.34;100320.55;124203;1099;104363;-75
2022/08/06 05:46:30;;;;;;;26.17;15.90;;;;;;;22.81;71.23;100306.13;124176;1099;104194;-75
2022/08/06 05:49:06;;;;;;;28.03;16.97;;;;;;;22.87;71.25;100311.37;124134;1099;104208;-75
2022/08/06 05:51:40;;;;;;;30.00;17.03;;;;;;;22.96;71.42;100311.21;124193;1099;104300;-75
2022/08/06 05:54:11;;;;;;;;;;;;;;;23.04;71.10;100316.42;124165;1099;104801;-75
2022/08/06 05:56:45;;;;;;;25.93;15.53;;;;;;;23.11;71.05;100309.22;124205;1101;104165;-76
2022/08/06 05:59:20;;;;;;;27.97;17.03;;;;;;;23.15;71.37;100314.48;124512;1099;102431;-75
2022/08/06 06:01:49;;;;;;;26.00;17.10;;;;;;;23.20;71.22;100313.48;124710;1099;102274;-75
2022/08/06 06:04:20;;;;;;;28.30;16.40;;;;;;;23.26;71.10;100305.34;124696;1099;104361;-75
2022/08/06 06:06:49;;;;;;;27.30;16.77;;;;;;;23.32;70.96;100308.77;124302;1099;104336;-75
2022/08/06 06:09:18;;;;;;;33.53;16.57;;;;;;;23.40;70.99;100307.74;124180;1099;104300;-75
2022/08/06 06:11:49;;;;;;;26.87;17.07;;;;;;;23.49;70.66;100310.23;124570;1099;104217;-74
2022/08/06 06:14:30;;;;;;;26.87;16.17;;;;;;;23.57;70.75;100310.95;124196;1099;104162;-75
2022/08/06 06:17:15;;;;;;;28.40;17.30;;;;;;;23.63;70.58;100308.14;124192;1099;104290;-75
2022/08/06 06:19:56;;;;;;;26.27;15.80;;;;;;;23.71;70.56;100307.11;124182;1099;104450;-75
2022/08/06 06:22:34;;;;;;;29.37;16.47;;;;;;;23.77;70.33;100304.30;124217;1099;104172;-75
2022/08/06 06:25:10;;;;;;;26.03;16.33;;;;;;;23.85;70.66;100305.03;124194;1099;104235;-76
2022/08/06 06:27:46;;;;;;;28.27;16.30;;;;;;;23.89;70.35;100312.09;124179;1099;102852;-75
2022/08/06 06:30:20;;;;;;;25.30;16.03;;;;;;;23.95;70.19;100306.60;124228;1099;104227;-75
2022/08/06 06:32:56;;;;;;;25.90;16.97;;;;;;;24.01;70.22;100306.47;124149;1099;104297;-75
2022/08/06 06:35:36;;;;;;;27.00;16.30;;;;;;;24.05;70.07;100305.45;124179;1102;104159;-75
2022/08/06 06:38:22;;;;;;;26.53;16.57;;;;;;;24.13;69.99;100299.05;124187;1099;113049;-75
2022/08/06 06:40:57;;;;;;;24.80;16.80;;;;;;;24.22;70.25;100309.55;124232;1100;104369;-75
2022/08/06 06:43:34;;;;;;;26.03;16.83;;;;;;;24.32;69.91;100299.48;124202;1099;104194;-75
2022/08/06 06:46:09;;;;;;;26.23;17.00;;;;;;;24.40;69.95;100294.80;124134;1099;104192;-76
2022/08/06 06:48:42;;;;;;;27.93;16.87;;;;;;;24.49;69.60;100299.94;124165;1099;102795;-75
2022/08/06 06:51:17;;;;;;;26.33;16.70;;;;;;;24.59;69.50;100306.02;124194;1099;104200;-75
2022/08/06 06:53:49;;;;;;;26.27;16.20;;;;;;;24.66;69.28;100301.36;124185;1099;102219;-75
2022/08/06 06:56:22;;;;;;;25.97;17.20;;;;;;;24.76;69.00;100294.81;124167;1099;103600;-75
2022/08/06 06:58:55;;;;;;;28.27;16.23;;;;;;;24.85;68.97;100291.89;124177;1102;107059;-75
2022/08/06 07:01:26;;;;;;;25.35;16.87;;;;;;;24.95;68.73;100297.92;124231;1099;102825;-75
2022/08/06 07:03:56;;;;;;;25.30;15.50;;;;;;;25.05;68.71;100291.36;124163;1099;104354;-75
2022/08/06 07:06:26;;;;;;;27.37;17.07;;;;;;;25.15;68.77;100289.32;124334;1099;101856;-75
2022/08/06 07:08:57;;;;;;;27.23;16.20;;;;;;;25.25;68.68;100288.12;124199;1099;119356;-76
2022/08/06 07:11:27;;;;;;;24.87;16.03;;;;;;;25.40;68.08;100297.59;124254;1099;104162;-75
2022/08/06 07:13:59;;;;;;;26.10;16.27;;;;;;;25.54;67.69;100290.91;124174;1099;104211;-75
2022/08/06 07:16:32;;;;;;;23.00;15.93;;;;;;;25.63;67.24;100301.39;124165;1099;104293;-75
2022/08/06 07:19:03;;;;;;;26.47;16.27;;;;;;;25.73;67.22;100288.58;124162;1102;102304;-75
2022/08/06 07:21:34;;;;;;;25.20;16.07;;;;;;;25.84;66.95;100294.50;124692;1099;104267;-75
2022/08/06 07:24:05;;;;;;;24.87;16.03;;;;;;;25.99;66.82;100298.53;124703;1099;104216;-76
2022/08/06 07:26:36;;;;;;;25.87;16.33;;;;;;;26.18;66.04;100288.09;124654;1099;104236;-75
2022/08/06 07:29:05;;;;;;;23.23;15.50;;;;;;;26.33;65.45;100284.91;124231;1099;104294;-75
2022/08/06 07:31:34;;;;;;;24.07;15.60;;;;;;;26.50;66.12;100291.52;124228;1099;104325;-75
2022/08/06 07:34:04;;;;;;;24.00;15.87;;;;;;;26.69;65.04;100289.11;124233;1099;104204;-76
2022/08/06 07:36:37;;;;;;;24.50;16.57;;;;;;;26.80;64.51;100288.73;124128;1099;104232;-74
2022/08/06 07:39:13;;;;;;;21.57;14.60;;;;;;;26.97;65.08;100286.31;124500;1099;103319;-75
2022/08/06 07:41:44;;;;;;;23.57;15.03;;;;;;;27.19;64.50;100288.23;124721;1099;104156;-75
2022/08/06 07:44:14;;;;;;;24.90;14.80;;;;;;;27.40;63.96;100292.00;124684;1099;104169;-75
2022/08/06 07:46:49;;;;;;;22.90;15.33;;;;;;;27.51;63.93;100288.91;124741;1099;104307;-75
2022/08/06 07:49:22;;;;;;;25.03;15.53;;;;;;;27.65;63.05;100288.37;124320;1099;102153;-76
2022/08/06 07:51:53;;;;;;;23.07;15.55;;;;;;;27.85;63.09;100293.00;124172;1102;104404;-75
2022/08/06 07:54:25;;;;;;;22.17;15.03;;;;;;;28.06;61.97;100292.14;124230;1099;104299;-75
2022/08/06 07:56:54;;;;;;;24.27;15.00;;;;;;;28.25;61.67;100286.00;124205;1099;104175;-75
2022/08/06 07:59:23;;;;;;;25.53;15.17;;;;;;;28.39;61.26;100286.34;124373;1099;104297;-74
2022/08/06 08:01:52;;;;;;;21.67;14.63;;;;;;;28.60;61.56;100289.97;124178;1099;104223;-75
2022/08/06 08:07:09;;;;;;;22.20;14.17;;;;;;;28.76;60.22;100289.31;124167;1099;101809;-75
2022/08/06 08:09:39;;;;;;;21.27;14.23;;;;;;;28.93;60.30;100286.74;124306;1098;104274;-75
2022/08/06 08:12:12;;;;;;;20.20;13.97;;;;;;;29.05;59.65;100294.30;124236;1099;102016;-75
2022/08/06 08:14:43;;;;;;;23.90;14.60;;;;;;;29.28;59.40;100289.73;124191;1099;104175;-75
2022/08/06 08:17:12;;;;;;;20.40;13.77;;;;;;;29.47;58.62;100280.79;124210;1099;104182;-75
2022/08/06 08:19:41;;;;;;;23.07;14.73;;;;;;;29.50;58.21;100292.33;124243;1099;104178;-75
2022/08/06 08:22:13;;;;;;;20.70;14.20;;;;;;;29.42;57.31;100290.91;124248;1099;104163;-74
2022/08/06 08:24:43;;;;;;;21.60;14.53;;;;;;;29.55;57.39;100290.27;124208;1099;104175;-74
2022/08/06 08:27:12;;;;;;;22.67;14.57;;;;;;;29.61;56.85;100289.13;124208;1099;104210;-75
2022/08/06 08:29:42;;;;;;;20.63;14.07;;;;;;;29.80;56.82;100294.56;124210;1099;102293;-74
2022/08/06 08:32:11;;;;;;;19.63;13.70;;;;;;;29.91;56.43;100289.51;124220;1099;104366;-75
2022/08/06 08:34:41;;;;;;;22.13;13.93;;;;;;;29.95;55.19;100301.08;124194;1097;102300;-75
2022/08/06 08:37:10;;;;;;;22.27;14.30;;;;;;;29.95;54.91;100298.37;124189;1099;104226;-75
2022/08/06 08:39:39;;;;;;;24.67;13.47;;;;;;;29.99;54.62;100294.55;124454;1098;104082;-75
2022/08/06 08:42:14;;;;;;;22.43;13.77;;;;;;;29.99;54.92;100296.39;124670;1099;104176;-75
2022/08/06 08:44:45;;;;;;;20.10;13.40;;;;;;;29.98;54.16;100300.93;124695;1099;103731;-75
2022/08/06 08:47:18;;;;;;;20.10;12.83;;;;;;;30.02;54.24;100298.94;124684;1099;104294;-75
2022/08/06 08:49:51;;;;;;;20.68;13.55;;;;;;;30.02;54.08;100299.81;124402;1099;103003;-75
2022/08/06 08:52:27;;;;;;;20.27;12.53;;;;;;;30.06;54.00;100298.72;124175;1099;104235;-75
2022/08/06 08:54:59;;;;;;;23.27;13.43;;;;;;;30.13;53.76;100298.42;124175;1099;104230;-75
2022/08/06 08:57:28;;;;;;;22.77;13.77;;;;;;;30.23;53.68;100299.70;124207;1099;104242;-75
2022/08/06 08:59:57;;;;;;;20.33;13.23;;;;;;;30.19;53.02;100288.16;124245;1099;104617;-75
2022/08/06 09:02:27;;;;;;;20.13;13.10;;;;;;;30.05;52.21;100290.68;124227;1099;104236;-75
2022/08/06 09:04:56;;;;;;;18.83;12.37;;;;;;;30.10;52.32;100288.61;124123;1102;104399;-75
2022/08/06 09:07:26;;;;;;;19.90;13.30;;;;;;;30.23;52.46;100283.47;124184;1099;104238;-75
2022/08/06 09:09:56;;;;;;;19.83;12.47;;;;;;;30.34;52.39;100281.13;124196;1099;104204;-75
2022/08/06 09:12:25;;;;;;;18.53;12.00;;;;;;;30.29;52.15;100277.75;124155;1099;104256;-75
2022/08/06 09:14:54;;;;;;;18.53;12.60;;;;;;;30.10;51.61;100280.50;124208;1098;103209;-76
2022/08/06 09:17:25;;;;;;;19.87;13.03;;;;;;;29.92;51.13;100287.70;124188;1099;103929;-75
2022/08/06 09:19:54;;;;;;;19.60;11.57;;;;;;;29.93;51.41;100287.63;124174;1099;102465;-75
2022/08/06 09:22:22;;;;;;;19.57;12.10;;;;;;;29.97;50.94;100282.94;124207;1099;104185;-75
2022/08/06 09:24:51;;;;;;;18.20;12.17;;;;;;;30.11;50.75;100276.86;124160;1099;104243;-75
2022/08/06 09:27:20;;;;;;;17.43;11.33;;;;;;;30.24;50.49;100277.11;124182;1099;104197;-75
2022/08/06 09:29:52;;;;;;;17.57;11.00;;;;;;;30.28;49.43;100278.72;124205;1099;104230;-75
2022/08/06 09:32:41;;;;;;;17.50;11.13;;;;;;;30.20;49.82;100275.50;124204;1099;104178;-75
2022/08/06 09:35:24;;;;;;;17.97;11.43;;;;;;;30.16;49.85;100269.38;124241;1099;104185;-75
2022/08/06 09:38:01;;;;;;;17.87;11.40;;;;;;;30.26;49.78;100265.27;124191;1099;102817;-75
2022/08/06 09:40:30;;;;;;;19.73;11.57;;;;;;;30.50;49.93;100272.27;124199;1099;104162;-75
2022/08/06 09:42:58;;;;;;;19.30;11.67;;;;;;;30.53;49.30;100263.98;124174;1099;104220;-75
2022/08/06 09:45:28;;;;;;;19.10;11.47;;;;;;;30.49;49.40;100274.08;124272;1099;104166;-75
2022/08/06 09:48:05;;;;;;;18.00;11.73;;;;;;;30.44;49.24;100265.32;124236;1099;104159;-75
2022/08/06 09:50:40;;;;;;;18.80;11.20;;;;;;;30.42;48.07;100268.11;124252;1099;104190;-76
2022/08/06 09:53:09;;;;;;;19.97;11.33;;;;;;;30.57;48.34;100263.72;124253;1099;104235;-75
2022/08/06 09:55:38;;;;;;;17.63;11.70;;;;;;;30.65;48.03;100257.91;124149;1099;104372;-75
2022/08/06 09:58:07;;;;;;;17.53;11.07;;;;;;;30.62;47.82;100258.06;124203;1098;103279;-76
2022/08/06 10:00:37;;;;;;;17.67;11.10;;;;;;;30.61;47.40;100256.34;124213;1099;104173;-75
2022/08/06 10:03:08;;;;;;;16.83;10.67;;;;;;;30.53;47.60;100251.31;124329;1099;103616;-75
2022/08/06 10:05:37;;;;;;;16.00;9.63;;;;;;;30.56;47.03;100258.38;124614;1099;104238;-76
2022/08/06 10:08:09;;;;;;;14.27;9.53;;;;;;;30.63;46.58;100252.57;124197;1099;104060;-75
2022/08/06 10:10:46;;;;;;;16.00;9.77;;;;;;;30.88;46.64;100253.14;124616;1099;104264;-75
2022/08/06 10:13:19;;;;;;;15.47;9.90;;;;;;;31.00;46.16;100255.23;124221;1099;104175;-75
2022/08/06 10:15:49;;;;;;;16.12;9.73;;;;;;;31.13;45.98;100250.88;124176;1099;102197;-75
2022/08/06 10:18:36;;;;;;;16.87;10.70;;;;;;;31.25;46.01;100251.20;124226;1099;102791;-75
2022/08/06 10:21:07;;;;;;;17.30;11.40;;;;;;;31.28;45.68;100245.61;124225;1099;104239;-75
2022/08/06 10:23:38;;;;;;;17.97;10.70;;;;;;;31.17;45.79;100248.91;124219;1099;104242;-76
2022/08/06 10:26:10;;;;;;;16.93;10.27;;;;;;;30.98;45.63;100246.32;124218;1099;102618;-76
2022/08/06 10:28:41;;;;;;;18.90;10.57;;;;;;;30.87;45.76;100249.56;124260;1099;104235;-75
2022/08/06 10:31:11;;;;;;;17.53;10.80;;;;;;;30.75;45.72;100247.50;124152;1099;104176;-75
2022/08/06 10:33:47;;;;;;;15.07;10.07;;;;;;;30.82;45.71;100248.91;124217;1099;104220;-75
2022/08/06 10:36:20;;;;;;;15.50;10.30;;;;;;;31.05;45.64;100244.14;124151;1102;104211;-75
2022/08/06 10:38:53;;;;;;;18.87;10.67;;;;;;;31.26;45.79;100242.09;124187;1099;104163;-75
2022/08/06 10:41:22;;;;;;;16.50;10.10;;;;;;;31.34;45.08;100245.27;124129;1102;104350;-76
2022/08/06 10:43:53;;;;;;;15.97;10.40;;;;;;;31.28;44.88;100241.05;124239;1099;104268;-75
2022/08/06 10:46:23;;;;;;;16.03;10.60;;;;;;;31.20;44.76;100243.32;124196;1099;104398;-75
2022/08/06 10:48:53;;;;;;;17.47;10.90;;;;;;;31.09;44.38;100240.30;124196;1099;104202;-76
2022/08/06 10:51:23;;;;;;;17.27;9.83;;;;;;;30.93;44.20;100253.76;124236;1099;101946;-76
2022/08/06 10:53:52;;;;;;;15.50;9.77;;;;;;;30.93;44.26;100249.23;124218;1099;103602;-75
2022/08/06 10:56:24;;;;;;;15.65;10.20;;;;;;;31.05;44.31;100241.44;124264;1099;104245;-75
2022/08/06 10:58:54;;;;;;;16.17;10.43;;;;;;;31.25;44.35;100251.20;124169;1099;104242;-75
2022/08/06 11:01:32;;;;;;;17.10;9.97;;;;;;;31.38;44.25;100246.84;124199;1099;104242;-75
2022/08/06 11:04:13;;;;;;;15.93;9.50;;;;;;;31.42;44.09;100243.00;124218;1098;104175;-75
2022/08/06 11:07:03;;;;;;;16.20;10.20;;;;;;;31.47;43.92;100240.91;124241;1099;104176;-75
2022/08/06 11:09:47;;;;;;;15.30;9.73;;;;;;;31.45;43.55;100241.97;124243;1099;104185;-76
2022/08/06 11:12:31;;;;;;;15.70;9.57;;;;;;;31.53;43.70;100243.31;124208;1099;104324;-75
2022/08/06 11:15:01;;;;;;;15.37;9.90;;;;;;;31.61;43.53;100233.88;124228;1099;104191;-75
2022/08/06 11:17:44;;;;;;;14.70;9.43;;;;;;;31.68;43.18;100229.84;124246;1099;104335;-75